Airfield :







YOU CAN JOIN US ON...

 
LOGIN :

Register | Disclaimer

   EN    FR    IT 

 









Legend :    VFR   Marginal VFR   IFR   Intensive IFR   Very Intensive IFR
Visi :
Ceiling :
>= 8 km
>= 3000ft
5 to 8 km
1000 to 3000 ft
1500m to 5 km
500 to 1000 ft
800 to 1500m
200 to 500 ft
< 800m
< 200 ft
Symbols :   Thunderstorms  Fog  Heavy snow  Heavy precipitations  Wind > 20 kt







- Airport Elevation : 92 ft
- IATA code : YZX


CYZX - CFB Greenwood

CURRENT METAR :
  • 192200Z 25012KT 15SM -SHRA FEW030 OVC056 10/09 A3014 RMK SC2SC6 PCPN VRY LGT SLP208

EXPIRED METARs :
  • 192100Z 27011G17KT 15SM -SHRA OVC050 12/08 A3014 RMK SC8 PCPN VRY LGT SLP208
  • 192000Z 27013G18KT 15SM -SHRA OVC060 12/08 A3012 RMK SC8 SLP201

TAF TAF CYZX
Valid from the 19 at 18:00 until the 20 at 18:00 UTC


191730Z 1918/2018 29012KT P6SM FEW050 BKN100
FM191900 27008KT P6SM OVC080
TEMPO 1919/1923 P6SM -SHRA
FM192300 VRB03KT P6SM -SHRA OVC040
FM200600 16006KT P6SM -RA SCT012 OVC020
TEMPO 2006/2008 6SM -RA BR OVC012
FM200800 15005KT P6SM -RA OVC015
TEMPO 2008/2018 3SM -RA BR SCT006 OVC010
PROB30 2008/2012 2SM -RA BR OVC006
BECMG 2017/2018 22006KT RMK NXT FCST BY 200000Z
CZQM FIR / North America



MET'MAP, your aeronautical weather chart ! - Copyright ORBIFLY December 2007 - Disclaimer

ORBIFLY MET'MAP TEAM :

Programming & Development : Alexandra Zaïnal
Concept & Development : Baudouin d'Aumeries
Co-Development & Prog : Marc-Olivier Méhu
Technical & hardware support : Manuel Goepfert

Contact : metmap@orbifly.com




SOURCES & CREDITS :

   NOAA